Aquone, North Carolina
Current Conditions -  °F | °C
As of 6:15 AM on Friday 24 Oct 2014 (Local Time) from KRHP Reporting Station
Clear Clear  
Wind Chill: 34°   Ceiling: Unl
Heat Index: 38°   Visibility: 7mi
Dew Point: 38°   Wind: 5mph
Humidity: 99%   Direction: 30°NNE
Pressure: 30.11"   Gusts: NA
Location:  35.2235°N, 83.6438°W
Report Text: KRHP 241015Z AUTO 03004KT 7SM CLR 03/03 A3011 RMK AO2 T00320031
Loading
Personal Weather Stations






























Interactive Weather Map New forecast layout! Learn more

10-Day Weather Forecast

Advertisements
Track Severe Weather on mobile